Time;durP1;ratioP1;P1;durP2;ratioP2;P2;SDS_P1;SDS_P2;PMS_P1;PMS_P2;Temp;Humidity;BMP_temperature;BMP_pressure;BME280_temperature;BME280_humidity;BME280_pressure;Samples;Min_cycle;Max_cycle;Signal;HPM_P1;HPM_P2
2022/06/25 00:00:56;;;;;;;1.90;1.80;;;;;;;;;;5055615;28;20409;-78
2022/06/25 00:03:22;;;;;;;1.40;1.20;;;;;;;;;;5055638;28;20422;-76
2022/06/25 00:05:48;;;;;;;3.60;1.40;;;;;;;;;;5054273;28;21100;-77
2022/06/25 00:08:14;;;;;;;1.70;1.53;;;;;;;;;;5055474;28;20412;-76
2022/06/25 00:10:40;;;;;;;1.50;1.50;;;;;;;;;;5055454;28;20502;-77
2022/06/25 00:13:06;;;;;;;6.50;1.50;;;;;;;;;;5055311;28;20404;-77
2022/06/25 00:15:32;;;;;;;1.50;1.40;;;;;;;;;;5055328;28;20473;-78
2022/06/25 00:17:58;;;;;;;1.63;1.40;;;;;;;;;;5055287;28;20456;-77
2022/06/25 00:20:24;;;;;;;1.43;1.43;;;;;;;;;;5055221;28;20416;-77
2022/06/25 00:22:50;;;;;;;2.37;1.63;;;;;;;;;;5055242;28;20397;-77
2022/06/25 00:25:16;;;;;;;1.37;1.37;;;;;;;;;;5055261;28;20414;-77
2022/06/25 00:27:42;;;;;;;2.10;1.20;;;;;;;;;;5055123;28;20449;-77
2022/06/25 00:30:09;;;;;;;1.73;1.53;;;;;;;;;;5055153;28;20421;-76
2022/06/25 00:32:35;;;;;;;2.73;1.30;;;;;;;;;;5055101;28;20407;-77
2022/06/25 00:35:01;;;;;;;2.30;1.60;;;;;;;;;;5054984;28;20498;-77
2022/06/25 00:37:27;;;;;;;1.60;1.50;;;;;;;;;;5055025;28;20399;-77
2022/06/25 00:39:53;;;;;;;6.60;1.30;;;;;;;;;;5054956;28;20418;-77
2022/06/25 00:42:19;;;;;;;2.00;1.40;;;;;;;;;;5054933;28;20399;-77
2022/06/25 00:44:45;;;;;;;1.63;1.47;;;;;;;;;;5054765;28;20758;-77
2022/06/25 00:47:12;;;;;;;12.53;1.70;;;;;;;;;;5053593;28;20467;-77
2022/06/25 00:49:39;;;;;;;1.57;1.50;;;;;;;;;;5053794;28;20780;-77
2022/06/25 00:52:07;;;;;;;3.80;1.20;;;;;;;;;;5053392;28;20890;-76
2022/06/25 00:54:35;;;;;;;1.73;1.63;;;;;;;;;;5054590;28;20458;-77
2022/06/25 00:57:04;;;;;;;1.60;1.50;;;;;;;;;;5054658;28;20523;-76
2022/06/25 00:59:32;;;;;;;1.57;1.47;;;;;;;;;;5054516;28;20427;-77
2022/06/25 01:01:59;;;;;;;2.67;1.50;;;;;;;;;;5054466;28;20412;-77
2022/06/25 01:04:25;;;;;;;1.50;1.50;;;;;;;;;;5054459;28;20420;-77
2022/06/25 01:06:51;;;;;;;2.33;1.60;;;;;;;;;;5054413;28;20819;-76
2022/06/25 01:09:17;;;;;;;1.57;1.43;;;;;;;;;;5054330;28;20411;-76
2022/06/25 01:11:43;;;;;;;2.10;1.47;;;;;;;;;;5054300;28;20411;-76
2022/06/25 01:14:09;;;;;;;3.10;1.63;;;;;;;;;;5053952;28;20973;-75
2022/06/25 01:16:35;;;;;;;1.33;1.33;;;;;;;;;;5054239;28;20422;-76
2022/06/25 01:19:07;;;;;;;1.70;1.60;;;;;;;;;;5052913;28;20926;-77
2022/06/25 01:21:33;;;;;;;5.10;1.70;;;;;;;;;;5052835;28;20419;-77
2022/06/25 01:23:59;;;;;;;1.67;1.67;;;;;;;;;;5053622;28;20931;-77
2022/06/25 01:26:25;;;;;;;5.27;1.63;;;;;;;;;;5054067;28;20411;-77
2022/06/25 01:28:51;;;;;;;2.57;1.60;;;;;;;;;;5053884;28;20422;-76
2022/06/25 01:31:17;;;;;;;1.67;1.57;;;;;;;;;;5053891;28;20446;-77
2022/06/25 01:33:43;;;;;;;1.50;1.40;;;;;;;;;;5053841;28;20465;-77
2022/06/25 01:36:09;;;;;;;5.93;1.57;;;;;;;;;;5053900;28;20417;-76
2022/06/25 01:38:35;;;;;;;1.50;1.50;;;;;;;;;;5053801;28;20400;-76
2022/06/25 01:41:01;;;;;;;1.63;1.53;;;;;;;;;;5053756;28;20774;-76
2022/06/25 01:43:27;;;;;;;1.70;1.60;;;;;;;;;;5053726;28;20460;-76
2022/06/25 01:45:53;;;;;;;1.87;1.67;;;;;;;;;;5053682;28;20398;-76
2022/06/25 01:48:19;;;;;;;1.60;1.60;;;;;;;;;;5053708;28;20412;-73
2022/06/25 01:50:45;;;;;;;3.17;1.67;;;;;;;;;;5052320;28;20793;-76
2022/06/25 01:53:11;;;;;;;1.87;1.77;;;;;;;;;;5052369;28;20430;-76
2022/06/25 01:55:37;;;;;;;1.60;1.50;;;;;;;;;;5053452;28;20875;-77
2022/06/25 01:58:03;;;;;;;2.03;1.93;;;;;;;;;;5053417;28;20546;-75
2022/06/25 02:00:30;;;;;;;2.73;1.40;;;;;;;;;;5053548;28;20407;-75
2022/06/25 02:02:56;;;;;;;1.97;1.87;;;;;;;;;;5053580;28;20463;-77
2022/06/25 02:08:08;;;;;;;1.80;1.80;;;;;;;;;;5053596;28;20418;-76
2022/06/25 02:10:34;;;;;;;1.70;1.70;;;;;;;;;;5053433;28;20755;-75
2022/06/25 02:13:00;;;;;;;1.83;1.83;;;;;;;;;;5053261;28;20910;-76
2022/06/25 02:15:27;;;;;;;6.03;1.90;;;;;;;;;;5053132;28;20532;-76
2022/06/25 02:17:53;;;;;;;2.00;1.47;;;;;;;;;;5053405;28;20882;-76
2022/06/25 02:20:19;;;;;;;3.80;2.20;;;;;;;;;;5053256;28;20422;-77
2022/06/25 02:22:45;;;;;;;2.43;1.70;;;;;;;;;;5053297;28;20484;-77
2022/06/25 02:25:11;;;;;;;1.90;1.90;;;;;;;;;;5051960;28;20940;-72
2022/06/25 02:27:37;;;;;;;2.60;2.40;;;;;;;;;;5051972;28;20448;-74
2022/06/25 02:30:03;;;;;;;2.30;2.30;;;;;;;;;;5053218;28;20434;-76
2022/06/25 02:32:32;;;;;;;2.47;2.37;;;;;;;;;;5053194;28;20849;-75
2022/06/25 02:34:58;;;;;;;1.90;1.90;;;;;;;;;;5053018;28;20874;-77
2022/06/25 02:37:23;;;;;;;3.87;2.33;;;;;;;;;;5057055;28;20402;-77
2022/06/25 02:39:49;;;;;;;1.87;1.87;;;;;;;;;;5057100;28;20438;-75
2022/06/25 02:42:15;;;;;;;2.30;2.20;;;;;;;;;;5057076;28;20411;-73
2022/06/25 02:44:41;;;;;;;3.33;2.17;;;;;;;;;;5057011;28;20432;-76
2022/06/25 02:47:07;;;;;;;2.20;2.10;;;;;;;;;;5057085;28;20409;-76
2022/06/25 02:49:33;;;;;;;7.10;1.93;;;;;;;;;;5056929;28;20468;-75
2022/06/25 02:51:59;;;;;;;1.70;1.70;;;;;;;;;;5056967;28;20459;-76
2022/06/25 02:54:25;;;;;;;2.23;2.00;;;;;;;;;;5056810;28;20505;-76
2022/06/25 02:59:42;;;;;;;2.17;1.93;;;;;;;;;;5056990;28;20786;-76
2022/06/25 03:02:09;;;;;;;1.70;1.60;;;;;;;;;;5056713;28;20406;-75
2022/06/25 03:04:35;;;;;;;1.83;1.67;;;;;;;;;;5056673;28;20501;-76
2022/06/25 03:07:01;;;;;;;3.70;1.70;;;;;;;;;;5056613;28;20495;-76
2022/06/25 03:09:27;;;;;;;9.93;2.10;;;;;;;;;;5056803;28;20502;-76
2022/06/25 03:11:53;;;;;;;6.03;1.73;;;;;;;;;;5056551;28;20982;-76
2022/06/25 03:14:19;;;;;;;14.20;2.47;;;;;;;;;;5056272;28;20550;-76
2022/06/25 03:16:45;;;;;;;1.60;1.60;;;;;;;;;;5056465;28;20413;-76
2022/06/25 03:19:11;;;;;;;3.30;2.13;;;;;;;;;;5056470;28;20484;-76
2022/06/25 03:21:37;;;;;;;1.87;1.67;;;;;;;;;;5056444;28;20903;-76
2022/06/25 03:24:04;;;;;;;4.20;2.00;;;;;;;;;;5056323;28;20468;-77
2022/06/25 03:26:30;;;;;;;2.30;2.20;;;;;;;;;;5056277;28;20489;-74
2022/06/25 03:28:56;;;;;;;3.50;1.63;;;;;;;;;;5056203;28;20425;-76
2022/06/25 03:31:22;;;;;;;2.60;1.93;;;;;;;;;;5056134;28;20894;-75
2022/06/25 03:33:49;;;;;;;6.40;1.53;;;;;;;;;;5056094;28;20465;-76
2022/06/25 03:36:15;;;;;;;2.83;1.40;;;;;;;;;;5056120;28;20828;-76
2022/06/25 03:38:41;;;;;;;2.07;1.97;;;;;;;;;;5056075;28;20881;-72
2022/06/25 03:43:51;;;;;;;1.83;1.73;;;;;;;;;;5056224;28;20779;-68
2022/06/25 03:46:17;;;;;;;2.00;1.70;;;;;;;;;;5055481;28;20411;-69
2022/06/25 03:48:43;;;;;;;5.77;1.90;;;;;;;;;;5055969;28;20436;-70
2022/06/25 03:51:09;;;;;;;3.73;1.90;;;;;;;;;;5055761;28;20403;-67
2022/06/25 03:53:35;;;;;;;1.80;1.70;;;;;;;;;;5055749;28;20429;-68
2022/06/25 03:56:01;;;;;;;2.67;1.60;;;;;;;;;;5056079;28;20406;-69
2022/06/25 03:58:28;;;;;;;2.53;2.30;;;;;;;;;;5055695;28;20894;-68
2022/06/25 04:00:53;;;;;;;4.90;1.50;;;;;;;;;;5055660;28;20506;-70
2022/06/25 04:03:19;;;;;;;2.03;1.93;;;;;;;;;;5055599;28;20434;-75
2022/06/25 04:05:45;;;;;;;9.30;1.60;;;;;;;;;;5055628;28;20912;-74
2022/06/25 04:08:12;;;;;;;3.47;1.70;;;;;;;;;;5054168;28;20512;-70
2022/06/25 04:10:38;;;;;;;1.67;1.53;;;;;;;;;;5055483;28;20916;-71
2022/06/25 04:13:04;;;;;;;1.80;1.70;;;;;;;;;;5055306;28;20414;-75
2022/06/25 04:15:29;;;;;;;3.37;2.20;;;;;;;;;;5055221;28;20478;-74
2022/06/25 04:17:55;;;;;;;1.80;1.70;;;;;;;;;;5055353;28;20497;-71
2022/06/25 04:20:21;;;;;;;1.87;1.77;;;;;;;;;;5055244;28;20421;-72
2022/06/25 04:22:47;;;;;;;3.80;1.63;;;;;;;;;;5055203;28;20465;-76
2022/06/25 04:25:13;;;;;;;1.83;1.73;;;;;;;;;;5055232;28;20419;-75
2022/06/25 04:30:35;;;;;;;6.10;1.97;;;;;;;;;;5035544;28;20446;-75
2022/06/25 04:33:01;;;;;;;2.03;1.93;;;;;;;;;;5055108;28;20421;-76
2022/06/25 04:35:27;;;;;;;1.90;1.80;;;;;;;;;;5054976;28;20488;-74
2022/06/25 04:37:53;;;;;;;5.20;1.80;;;;;;;;;;5055073;28;20398;-70
2022/06/25 04:40:19;;;;;;;1.53;1.53;;;;;;;;;;5054963;28;20486;-73
2022/06/25 04:42:46;;;;;;;3.90;2.37;;;;;;;;;;5054886;28;20400;-73
2022/06/25 04:45:12;;;;;;;3.33;2.40;;;;;;;;;;5054728;28;20508;-75
2022/06/25 04:47:38;;;;;;;3.80;2.30;;;;;;;;;;5053430;28;20413;-71
2022/06/25 04:50:04;;;;;;;1.77;1.77;;;;;;;;;;5054800;28;20760;-74
2022/06/25 04:52:30;;;;;;;1.80;1.70;;;;;;;;;;5054640;28;20407;-73
2022/06/25 04:54:56;;;;;;;4.30;2.07;;;;;;;;;;5054474;28;20528;-71
2022/06/25 04:57:22;;;;;;;2.10;1.60;;;;;;;;;;5054462;28;20411;-73
2022/06/25 04:59:48;;;;;;;7.83;1.83;;;;;;;;;;5053834;28;20420;-70
2022/06/25 05:02:14;;;;;;;3.80;1.50;;;;;;;;;;5054447;28;20886;-74
2022/06/25 05:04:40;;;;;;;1.03;1.03;;;;;;;;;;5054328;28;20413;-75
2022/06/25 05:07:06;;;;;;;1.63;1.53;;;;;;;;;;5054342;28;20408;-70
2022/06/25 05:09:32;;;;;;;8.33;1.30;;;;;;;;;;5054329;28;20490;-75
2022/06/25 05:11:58;;;;;;;22.00;19.73;;;;;;;;;;5054382;28;20413;-70
2022/06/25 05:14:24;;;;;;;3.77;3.47;;;;;;;;;;5053988;28;20518;-75
2022/06/25 05:16:50;;;;;;;61.37;47.97;;;;;;;;;;5054319;28;20414;-72
2022/06/25 05:19:16;;;;;;;24.83;22.07;;;;;;;;;;5054192;28;20769;-74
2022/06/25 05:21:42;;;;;;;3.97;3.67;;;;;;;;;;5054177;28;20465;-69
2022/06/25 05:24:08;;;;;;;9.53;8.70;;;;;;;;;;5053982;28;20848;-76
2022/06/25 05:26:34;;;;;;;1.60;1.50;;;;;;;;;;5052701;28;20475;-76
2022/06/25 05:29:00;;;;;;;2.67;2.00;;;;;;;;;;5053909;28;20425;-75
2022/06/25 05:31:26;;;;;;;2.03;2.03;;;;;;;;;;5053935;28;20415;-71
2022/06/25 05:33:52;;;;;;;5.67;2.13;;;;;;;;;;5052592;28;20460;-74
2022/06/25 05:36:18;;;;;;;4.87;1.30;;;;;;;;;;5053855;28;20420;-74
2022/06/25 05:38:44;;;;;;;1.40;1.40;;;;;;;;;;5053830;28;20503;-71
2022/06/25 05:41:10;;;;;;;2.93;1.60;;;;;;;;;;5053794;28;20406;-76
2022/06/25 05:43:37;;;;;;;1.40;1.20;;;;;;;;;;5053656;28;20422;-76
2022/06/25 05:46:03;;;;;;;13.20;11.30;;;;;;;;;;5053724;28;20410;-75
2022/06/25 05:48:29;;;;;;;2.63;2.43;;;;;;;;;;5053775;28;20420;-75
2022/06/25 05:50:55;;;;;;;2.80;1.70;;;;;;;;;;5053667;28;20400;-74
2022/06/25 05:53:21;;;;;;;6.73;5.90;;;;;;;;;;5053710;28;20414;-76
2022/06/25 05:55:47;;;;;;;3.37;2.00;;;;;;;;;;5053387;28;20897;-74
2022/06/25 05:58:13;;;;;;;5.20;1.70;;;;;;;;;;5053513;28;20453;-74
2022/06/25 06:00:39;;;;;;;1.60;1.50;;;;;;;;;;5053608;28;20448;-72
2022/06/25 06:03:05;;;;;;;2.10;1.10;;;;;;;;;;5053542;28;20430;-76
2022/06/25 06:05:32;;;;;;;1.50;1.50;;;;;;;;;;5053442;28;20959;-71
2022/06/25 06:07:57;;;;;;;0.93;0.93;;;;;;;;;;5053406;28;20415;-76
2022/06/25 06:10:23;;;;;;;2.90;1.30;;;;;;;;;;5053265;28;20408;-75
2022/06/25 06:12:49;;;;;;;4.33;1.30;;;;;;;;;;5053433;28;20414;-68
2022/06/25 06:15:15;;;;;;;27.37;24.40;;;;;;;;;;5052876;28;20483;-75
2022/06/25 06:17:41;;;;;;;3.67;2.30;;;;;;;;;;5053417;28;20402;-73
2022/06/25 06:20:08;;;;;;;2.47;1.90;;;;;;;;;;5053176;28;20408;-71
2022/06/25 06:22:34;;;;;;;3.50;2.87;;;;;;;;;;5053102;28;20449;-72
2022/06/25 06:25:00;;;;;;;2.40;2.27;;;;;;;;;;5053187;28;20415;-70
2022/06/25 06:27:26;;;;;;;3.00;2.80;;;;;;;;;;5053127;28;20441;-76
2022/06/25 06:29:52;;;;;;;4.40;2.20;;;;;;;;;;5053198;28;20433;-77
2022/06/25 06:32:18;;;;;;;1.83;1.40;;;;;;;;;;5053220;28;20760;-71
2022/06/25 06:34:45;;;;;;;2.00;1.43;;;;;;;;;;5053135;28;20532;-77
2022/06/25 06:37:11;;;;;;;1.07;1.07;;;;;;;;;;5053200;28;20922;-75
2022/06/25 06:39:37;;;;;;;1.53;1.30;;;;;;;;;;5051814;28;20567;-72
2022/06/25 06:42:03;;;;;;;1.57;1.57;;;;;;;;;;5053209;28;20461;-68
2022/06/25 06:44:29;;;;;;;7.20;1.17;;;;;;;;;;5053082;28;20417;-71
2022/06/25 06:46:55;;;;;;;6.00;1.40;;;;;;;;;;5053163;28;20402;-78
2022/06/25 06:49:21;;;;;;;1.40;1.30;;;;;;;;;;5053029;28;20421;-71
2022/06/25 06:51:47;;;;;;;1.53;0.80;;;;;;;;;;5052986;28;20770;-75
2022/06/25 06:54:13;;;;;;;1.00;1.00;;;;;;;;;;5052924;28;20465;-76
2022/06/25 06:56:39;;;;;;;1.00;1.00;;;;;;;;;;5052911;28;20807;-77
2022/06/25 06:59:05;;;;;;;4.63;1.10;;;;;;;;;;5052928;28;20468;-77
2022/06/25 07:01:31;;;;;;;2.30;2.20;;;;;;;;;;5052932;28;20410;-77
2022/06/25 07:03:57;;;;;;;2.67;0.90;;;;;;;;;;5052915;28;20475;-77
2022/06/25 07:06:23;;;;;;;1.47;1.40;;;;;;;;;;5052835;28;20407;-77
2022/06/25 07:08:49;;;;;;;3.23;1.10;;;;;;;;;;5052942;28;20453;-73
2022/06/25 07:11:30;;;;;;;1.60;1.10;;;;;;;;;;5052838;28;20449;-76
2022/06/25 07:13:57;;;;;;;0.97;0.97;;;;;;;;;;5052572;28;20525;-71
2022/06/25 07:16:23;;;;;;;1.30;1.30;;;;;;;;;;5052686;28;20413;-74
2022/06/25 07:18:50;;;;;;;2.43;0.97;;;;;;;;;;5052729;28;20878;-78
2022/06/25 07:21:17;;;;;;;1.80;1.70;;;;;;;;;;5053158;28;20415;-75
2022/06/25 07:23:43;;;;;;;1.10;1.00;;;;;;;;;;5056465;28;20408;-73
2022/06/25 07:26:09;;;;;;;1.10;1.10;;;;;;;;;;5056326;28;20410;-72
2022/06/25 07:28:35;;;;;;;1.23;1.03;;;;;;;;;;5056168;28;20435;-70
2022/06/25 07:31:01;;;;;;;1.20;1.20;;;;;;;;;;5056325;28;20880;-72
2022/06/25 07:33:29;;;;;;;0.80;0.80;;;;;;;;;;5056272;28;20416;-73
2022/06/25 07:35:55;;;;;;;0.77;0.77;;;;;;;;;;5055989;28;20833;-74
2022/06/25 07:38:21;;;;;;;0.90;0.90;;;;;;;;;;5054789;28;20472;-69
2022/06/25 07:40:47;;;;;;;2.10;1.10;;;;;;;;;;5056046;28;20891;-70
2022/06/25 07:43:14;;;;;;;1.20;1.10;;;;;;;;;;5055902;28;20416;-69
2022/06/25 07:45:41;;;;;;;1.17;1.00;;;;;;;;;;5055911;28;20515;-70
2022/06/25 07:48:07;;;;;;;1.10;1.10;;;;;;;;;;5055885;28;20493;-72
2022/06/25 07:53:17;;;;;;;1.05;1.02;;;;;;;;;;5054572;28;20457;-77
2022/06/25 07:55:43;;;;;;;6.70;1.53;;;;;;;;;;5055629;28;20212;-77
2022/06/25 07:58:09;;;;;;;1.17;0.97;;;;;;;;;;5055695;28;20410;-75
2022/06/25 08:00:35;;;;;;;1.10;1.10;;;;;;;;;;5055708;28;20406;-66
2022/06/25 08:03:01;;;;;;;1.67;1.10;;;;;;;;;;5055560;28;20394;-71
2022/06/25 08:05:28;;;;;;;0.93;0.90;;;;;;;;;;5055540;28;20404;-72
2022/06/25 08:07:54;;;;;;;1.13;1.13;;;;;;;;;;5055465;28;20967;-72
2022/06/25 08:10:21;;;;;;;1.63;0.90;;;;;;;;;;5055508;28;20411;-72
2022/06/25 08:12:47;;;;;;;1.30;1.20;;;;;;;;;;5055491;28;20838;-69
2022/06/25 08:15:13;;;;;;;2.00;2.00;;;;;;;;;;5055099;28;20576;-67
2022/06/25 08:17:39;;;;;;;1.37;1.10;;;;;;;;;;5055336;28;20401;-71
2022/06/25 08:20:06;;;;;;;1.20;1.10;;;;;;;;;;5055466;28;20890;-73
2022/06/25 08:22:32;;;;;;;1.00;1.00;;;;;;;;;;5037796;28;20448;-76
2022/06/25 08:24:57;;;;;;;1.07;1.07;;;;;;;;;;5055203;28;20487;-76
2022/06/25 08:27:24;;;;;;;0.80;0.80;;;;;;;;;;5055094;28;20442;-77
2022/06/25 08:29:50;;;;;;;1.33;1.33;;;;;;;;;;5055312;28;20437;-75
2022/06/25 08:32:16;;;;;;;1.13;1.00;;;;;;;;;;5055140;28;20409;-67
2022/06/25 08:34:42;;;;;;;1.33;0.87;;;;;;;;;;5054065;28;20981;-66
2022/06/25 08:37:09;;;;;;;1.30;1.20;;;;;;;;;;5055491;28;20403;-77
2022/06/25 08:39:35;;;;;;;1.10;1.10;;;;;;;;;;5056394;28;20412;-69
2022/06/25 08:42:01;;;;;;;1.10;1.10;;;;;;;;;;5057325;28;20914;-74
2022/06/25 08:44:29;;;;;;;1.03;1.03;;;;;;;;;;5055948;28;20407;-76
2022/06/25 08:46:56;;;;;;;3.23;1.30;;;;;;;;;;5054958;28;20964;-70
2022/06/25 08:49:22;;;;;;;1.27;1.27;;;;;;;;;;5054826;28;20475;-71
2022/06/25 08:51:48;;;;;;;3.33;1.63;;;;;;;;;;5054626;28;20408;-70
2022/06/25 08:54:14;;;;;;;1.03;1.03;;;;;;;;;;5053704;28;20524;-71
2022/06/25 08:56:41;;;;;;;1.10;1.10;;;;;;;;;;5058467;28;20490;-72
2022/06/25 08:59:08;;;;;;;1.27;1.27;;;;;;;;;;5068095;28;20423;-68
2022/06/25 09:01:34;;;;;;;0.80;0.80;;;;;;;;;;5067716;28;20419;-72
2022/06/25 09:04:00;;;;;;;0.97;0.97;;;;;;;;;;5071643;28;20413;-67
2022/06/25 09:06:26;;;;;;;0.93;0.93;;;;;;;;;;5072318;28;20407;-66
2022/06/25 09:09:12;;;;;;;1.50;1.07;;;;;;;;;;5070364;28;20439;-74
2022/06/25 09:11:50;;;;;;;0.93;0.93;;;;;;;;;;5071213;28;20419;-68
2022/06/25 09:14:35;;;;;;;1.70;1.10;;;;;;;;;;5069359;28;20477;-68
2022/06/25 09:17:04;;;;;;;2.30;1.10;;;;;;;;;;5071903;28;20400;-67
2022/06/25 09:19:33;;;;;;;7.30;1.20;;;;;;;;;;5069044;28;20489;-66
2022/06/25 09:22:00;;;;;;;1.37;1.33;;;;;;;;;;5068084;28;20396;-66
2022/06/25 09:25:06;;;;;;;1.63;1.53;;;;;;;;;;5069748;28;20400;-72
2022/06/25 09:27:37;;;;;;;1.40;1.40;;;;;;;;;;5053978;28;20427;-72
2022/06/25 09:30:09;;;;;;;1.10;1.03;;;;;;;;;;5052927;28;20421;-71
2022/06/25 09:32:42;;;;;;;1.20;1.20;;;;;;;;;;5054211;28;20482;-69
2022/06/25 09:35:09;;;;;;;1.57;1.47;;;;;;;;;;5054024;28;20498;-70
2022/06/25 09:37:35;;;;;;;8.07;1.37;;;;;;;;;;5053929;28;20402;-72
2022/06/25 09:40:03;;;;;;;1.47;1.37;;;;;;;;;;5054025;28;20415;-68
2022/06/25 09:42:31;;;;;;;1.50;1.40;;;;;;;;;;5052547;28;20419;-76
2022/06/25 09:45:00;;;;;;;1.00;1.00;;;;;;;;;;5054327;28;20419;-68
2022/06/25 09:47:27;;;;;;;1.23;1.23;;;;;;;;;;5054207;28;20913;-67
2022/06/25 09:50:03;;;;;;;1.47;1.37;;;;;;;;;;5053756;28;20450;-67
2022/06/25 09:52:29;;;;;;;1.03;0.97;;;;;;;;;;5054013;28;20414;-71
2022/06/25 09:54:55;;;;;;;2.90;1.60;;;;;;;;;;5053573;28;20476;-73
2022/06/25 09:57:22;;;;;;;1.07;0.97;;;;;;;;;;5053604;28;20407;-70
2022/06/25 09:59:50;;;;;;;2.37;1.40;;;;;;;;;;5053491;28;20426;-66
2022/06/25 10:02:17;;;;;;;6.63;6.13;;;;;;;;;;5053480;28;20405;-68
2022/06/25 10:04:44;;;;;;;1.63;1.40;;;;;;;;;;5053460;28;20423;-69
2022/06/25 10:07:10;;;;;;;1.83;1.00;;;;;;;;;;5053551;28;20510;-70
2022/06/25 10:09:39;;;;;;;2.00;1.20;;;;;;;;;;5053549;28;20399;-75
2022/06/25 10:12:06;;;;;;;1.13;1.13;;;;;;;;;;5053817;28;20411;-72
2022/06/25 10:14:33;;;;;;;1.00;1.00;;;;;;;;;;5052960;28;20493;-68
2022/06/25 10:16:59;;;;;;;3.63;3.53;;;;;;;;;;5053321;28;20410;-65
2022/06/25 10:19:27;;;;;;;1.23;1.13;;;;;;;;;;5053306;28;20414;-66
2022/06/25 10:21:54;;;;;;;1.40;1.40;;;;;;;;;;5053404;28;20413;-71
2022/06/25 10:24:20;;;;;;;1.37;1.20;;;;;;;;;;5054136;28;20471;-78
2022/06/25 10:26:46;;;;;;;1.43;1.33;;;;;;;;;;5054178;28;20898;-70
2022/06/25 10:29:28;;;;;;;2.30;0.93;;;;;;;;;;5053122;28;20422;-70
2022/06/25 10:32:13;;;;;;;0.90;0.90;;;;;;;;;;5053129;28;20414;-71
2022/06/25 10:34:51;;;;;;;1.17;1.10;;;;;;;;;;5053067;28;20467;-64
2022/06/25 10:37:19;;;;;;;1.17;1.00;;;;;;;;;;5053259;28;20897;-67
2022/06/25 10:39:48;;;;;;;6.10;1.43;;;;;;;;;;5053463;28;20419;-65
2022/06/25 10:45:05;;;;;;;2.23;2.13;;;;;;;;;;5053690;28;20414;-67
2022/06/25 10:47:41;;;;;;;0.90;0.90;;;;;;;;;;5054260;28;20494;-66
2022/06/25 10:50:22;;;;;;;1.40;1.40;;;;;;;;;;5054287;28;20805;-77
2022/06/25 10:53:03;;;;;;;1.60;1.30;;;;;;;;;;5051836;28;20783;-65
2022/06/25 10:55:35;;;;;;;2.37;1.20;;;;;;;;;;5053008;28;20463;-65
2022/06/25 10:58:23;;;;;;;2.10;1.27;;;;;;;;;;5056275;28;20407;-69
2022/06/25 11:00:53;;;;;;;1.17;1.07;;;;;;;;;;5056785;28;20399;-66
2022/06/25 11:03:28;;;;;;;1.40;1.30;;;;;;;;;;5056886;28;20414;-69
2022/06/25 11:05:55;;;;;;;1.27;1.27;;;;;;;;;;5056719;28;20407;-67
2022/06/25 11:08:24;;;;;;;1.07;1.07;;;;;;;;;;5055382;28;20433;-68
2022/06/25 11:10:50;;;;;;;1.43;1.30;;;;;;;;;;5056685;28;20476;-67
2022/06/25 11:13:16;;;;;;;2.00;1.10;;;;;;;;;;5056331;28;20494;-67
2022/06/25 11:15:45;;;;;;;1.10;1.10;;;;;;;;;;5056299;28;20474;-66
2022/06/25 11:18:12;;;;;;;1.97;1.00;;;;;;;;;;5056281;28;20459;-65
2022/06/25 11:20:39;;;;;;;1.30;1.30;;;;;;;;;;5056371;28;20499;-66
2022/06/25 11:23:05;;;;;;;1.20;1.20;;;;;;;;;;5056441;28;20411;-65
2022/06/25 11:28:48;;;;;;;1.40;1.23;;;;;;;;;;5056258;28;20445;-68
2022/06/25 11:31:15;;;;;;;1.80;0.90;;;;;;;;;;5056317;28;20480;-65
2022/06/25 11:33:43;;;;;;;1.20;1.20;;;;;;;;;;5056318;28;20867;-65
2022/06/25 11:36:09;;;;;;;1.30;1.20;;;;;;;;;;5056228;28;20784;-66
2022/06/25 11:38:36;;;;;;;1.10;1.10;;;;;;;;;;5056202;28;20744;-65
2022/06/25 11:41:02;;;;;;;2.73;1.10;;;;;;;;;;5056053;28;20416;-65
2022/06/25 11:43:29;;;;;;;2.60;1.30;;;;;;;;;;5055987;28;20400;-67
2022/06/25 11:45:59;;;;;;;1.20;1.20;;;;;;;;;;5056024;28;20418;-66
2022/06/25 11:48:26;;;;;;;0.80;0.80;;;;;;;;;;5056018;28;20419;-66
2022/06/25 11:50:55;;;;;;;1.50;1.20;;;;;;;;;;5055963;28;20450;-71
2022/06/25 11:53:21;;;;;;;1.03;1.03;;;;;;;;;;5055803;28;20403;-66
2022/06/25 11:56:16;;;;;;;1.50;1.40;;;;;;;;;;5055670;28;20467;-66
2022/06/25 11:58:42;;;;;;;1.53;1.10;;;;;;;;;;5051277;28;20427;-67
2022/06/25 12:01:08;;;;;;;1.13;1.07;;;;;;;;;;5055657;28;20419;-67
2022/06/25 12:03:35;;;;;;;2.40;1.00;;;;;;;;;;5055742;28;20403;-67
2022/06/25 12:06:03;;;;;;;0.80;0.80;;;;;;;;;;5055685;28;20411;-67
2022/06/25 12:08:29;;;;;;;1.30;1.20;;;;;;;;;;5055256;28;20956;-67
2022/06/25 12:10:55;;;;;;;2.10;1.20;;;;;;;;;;5054240;28;20428;-67
2022/06/25 12:13:22;;;;;;;1.93;1.03;;;;;;;;;;5055364;28;20403;-67
2022/06/25 12:15:49;;;;;;;1.00;1.00;;;;;;;;;;5054067;28;20480;-66
2022/06/25 12:18:15;;;;;;;0.80;0.80;;;;;;;;;;5055389;28;20457;-66
2022/06/25 12:20:58;;;;;;;1.20;1.20;;;;;;;;;;5055347;28;20415;-66
2022/06/25 12:23:24;;;;;;;1.13;1.13;;;;;;;;;;5055293;28;20322;-66
2022/06/25 12:25:50;;;;;;;2.10;0.60;;;;;;;;;;5055278;28;20418;-66
2022/06/25 12:28:16;;;;;;;7.30;1.00;;;;;;;;;;5055134;28;20422;-67
2022/06/25 12:30:43;;;;;;;0.80;0.80;;;;;;;;;;5055161;28;20785;-70
2022/06/25 12:33:13;;;;;;;1.10;1.10;;;;;;;;;;5055149;28;20839;-70
2022/06/25 12:35:43;;;;;;;0.90;0.90;;;;;;;;;;5054960;28;20467;-72
2022/06/25 12:38:10;;;;;;;0.80;0.80;;;;;;;;;;5055019;28;20402;-67
2022/06/25 12:40:43;;;;;;;4.20;1.10;;;;;;;;;;5054980;28;20929;-69
2022/06/25 12:43:11;;;;;;;1.23;0.90;;;;;;;;;;5055057;28;20418;-74
2022/06/25 12:45:37;;;;;;;0.80;0.80;;;;;;;;;;5054817;28;20427;-67
2022/06/25 12:48:04;;;;;;;0.80;0.80;;;;;;;;;;5054923;28;20453;-72
2022/06/25 12:50:34;;;;;;;1.33;1.23;;;;;;;;;;5054785;28;20407;-71
2022/06/25 12:53:11;;;;;;;1.07;0.97;;;;;;;;;;5054731;28;20404;-73
2022/06/25 12:55:37;;;;;;;0.60;0.60;;;;;;;;;;5054595;28;20834;-69
2022/06/25 12:58:04;;;;;;;1.80;1.00;;;;;;;;;;5054713;28;20407;-70
2022/06/25 13:00:32;;;;;;;0.93;0.93;;;;;;;;;;5054595;28;20418;-71
2022/06/25 13:02:58;;;;;;;0.73;0.73;;;;;;;;;;5054590;28;20392;-65
2022/06/25 13:05:24;;;;;;;0.60;0.60;;;;;;;;;;5054573;28;20408;-69
2022/06/25 13:07:50;;;;;;;3.10;0.87;;;;;;;;;;5054479;28;20800;-65
2022/06/25 13:10:17;;;;;;;0.80;0.80;;;;;;;;;;5054418;28;20519;-66
2022/06/25 13:12:43;;;;;;;1.07;0.73;;;;;;;;;;5053097;28;20411;-70
2022/06/25 13:15:10;;;;;;;3.30;1.03;;;;;;;;;;5053968;28;20490;-66
2022/06/25 13:17:36;;;;;;;1.33;0.80;;;;;;;;;;5054246;28;20411;-69
2022/06/25 13:20:03;;;;;;;0.80;0.80;;;;;;;;;;5053501;28;20407;-71
2022/06/25 13:22:29;;;;;;;0.80;0.80;;;;;;;;;;5054249;28;20427;-68
2022/06/25 13:24:55;;;;;;;0.93;0.93;;;;;;;;;;5054143;28;20883;-70
2022/06/25 13:27:21;;;;;;;1.30;1.30;;;;;;;;;;5054131;28;20177;-69
2022/06/25 13:29:47;;;;;;;0.90;0.90;;;;;;;;;;5054043;28;20411;-65
2022/06/25 13:32:17;;;;;;;0.80;0.80;;;;;;;;;;5054013;28;20898;-64
2022/06/25 13:34:48;;;;;;;1.17;1.17;;;;;;;;;;5053885;28;20485;-64
2022/06/25 13:37:14;;;;;;;1.33;1.10;;;;;;;;;;5053872;28;20395;-69
2022/06/25 13:39:40;;;;;;;1.33;0.83;;;;;;;;;;5053888;28;20407;-66
2022/06/25 13:42:06;;;;;;;0.90;0.90;;;;;;;;;;5053880;28;20399;-64
2022/06/25 13:44:34;;;;;;;1.60;0.97;;;;;;;;;;5053678;28;20407;-66
2022/06/25 13:47:01;;;;;;;3.13;0.93;;;;;;;;;;5053858;28;20403;-64
2022/06/25 13:49:27;;;;;;;0.70;0.70;;;;;;;;;;5053698;28;20414;-66
2022/06/25 13:51:53;;;;;;;1.27;1.03;;;;;;;;;;5054220;28;20395;-68
2022/06/25 13:54:19;;;;;;;0.97;0.97;;;;;;;;;;5053767;28;20447;-64
2022/06/25 13:56:45;;;;;;;1.17;1.17;;;;;;;;;;5053658;28;20407;-65
2022/06/25 13:59:10;;;;;;;0.90;0.90;;;;;;;;;;5053554;28;20501;-65
2022/06/25 14:01:37;;;;;;;1.50;1.47;;;;;;;;;;5050001;28;20450;-69
2022/06/25 14:04:03;;;;;;;1.00;0.87;;;;;;;;;;5053599;28;20404;-71
2022/06/25 14:06:29;;;;;;;1.20;1.10;;;;;;;;;;5053587;28;20418;-69
2022/06/25 14:08:56;;;;;;;1.10;1.10;;;;;;;;;;5053355;28;20406;-67
2022/06/25 14:11:22;;;;;;;0.70;0.70;;;;;;;;;;5053428;28;21029;-68
2022/06/25 14:13:48;;;;;;;0.80;0.80;;;;;;;;;;5051877;28;20466;-70
2022/06/25 14:16:14;;;;;;;0.80;0.80;;;;;;;;;;5053383;28;20415;-68
2022/06/25 14:18:41;;;;;;;1.00;1.00;;;;;;;;;;5053301;28;20439;-68
2022/06/25 14:21:07;;;;;;;0.90;0.90;;;;;;;;;;5053316;28;20395;-69
2022/06/25 14:23:34;;;;;;;0.80;0.80;;;;;;;;;;5052078;28;20993;-69
2022/06/25 14:26:00;;;;;;;0.90;0.90;;;;;;;;;;5053219;28;20399;-69
2022/06/25 14:28:26;;;;;;;1.30;1.30;;;;;;;;;;5053268;28;20434;-65
2022/06/25 14:30:52;;;;;;;0.83;0.83;;;;;;;;;;5054549;28;20514;-67
2022/06/25 14:33:18;;;;;;;1.13;1.07;;;;;;;;;;5057593;28;20415;-66
2022/06/25 14:43:58;;;;;;;0.70;0.70;;;;;;;;;;5057150;28;20792;-69
2022/06/25 14:46:24;;;;;;;0.90;0.90;;;;;;;;;;5057090;28;20404;-69
2022/06/25 14:48:50;;;;;;;0.93;0.93;;;;;;;;;;5057132;28;20482;-67
2022/06/25 14:51:17;;;;;;;0.97;0.97;;;;;;;;;;5056995;28;20862;-67
2022/06/25 14:53:43;;;;;;;1.47;1.10;;;;;;;;;;5057001;28;20398;-66
2022/06/25 14:56:09;;;;;;;1.00;1.00;;;;;;;;;;5056686;28;20462;-68
2022/06/25 14:58:35;;;;;;;0.90;0.90;;;;;;;;;;5056905;28;20437;-66
2022/06/25 15:01:01;;;;;;;1.60;0.73;;;;;;;;;;5055530;28;20184;-66
2022/06/25 15:03:27;;;;;;;1.00;1.00;;;;;;;;;;5056874;28;20778;-68
2022/06/25 15:05:54;;;;;;;1.10;1.00;;;;;;;;;;5055467;28;20500;-70
2022/06/25 15:08:20;;;;;;;1.50;0.80;;;;;;;;;;5056783;28;20936;-69
2022/06/25 15:10:46;;;;;;;0.90;0.90;;;;;;;;;;5056694;28;20415;-70